Time;durP1;ratioP1;P1;durP2;ratioP2;P2;SDS_P1;SDS_P2;PMS_P1;PMS_P2;Temp;Humidity;BMP_temperature;BMP_pressure;BME280_temperature;BME280_humidity;BME280_pressure;Samples;Min_cycle;Max_cycle;Signal;HPM_P1;HPM_P2
2023/06/01 00:02:03;;;;;;;7.27;3.20;;;20.20;53.50;;;;;;5054414;28;20256;-75
2023/06/01 00:04:30;;;;;;;4.57;2.97;;;20.10;53.40;;;;;;5049071;28;20238;-76
2023/06/01 00:06:59;;;;;;;3.70;2.80;;;20.10;53.40;;;;;;5034758;28;20573;-76
2023/06/01 00:09:26;;;;;;;4.13;2.57;;;20.10;53.40;;;;;;5046439;28;20240;-73
2023/06/01 00:11:53;;;;;;;5.83;2.80;;;20.10;53.40;;;;;;5036704;28;20209;-75
2023/06/01 00:14:21;;;;;;;7.80;2.90;;;20.10;53.60;;;;;;5053804;28;20198;-75
2023/06/01 00:16:48;;;;;;;6.63;2.77;;;20.00;53.70;;;;;;5054404;28;20186;-75
2023/06/01 00:19:17;;;;;;;4.90;2.60;;;20.00;53.90;;;;;;5053999;28;20202;-78
2023/06/01 00:21:44;;;;;;;5.30;3.00;;;19.90;54.00;;;;;;5054288;28;20260;-78
2023/06/01 00:24:11;;;;;;;4.47;2.73;;;19.90;54.00;;;;;;5036021;28;20619;-79
2023/06/01 00:26:38;;;;;;;4.07;2.90;;;19.80;54.10;;;;;;5053792;28;20329;-79
2023/06/01 00:29:05;;;;;;;2.93;2.40;;;19.80;54.20;;;;;;5053604;28;20670;-79
2023/06/01 00:31:31;;;;;;;4.63;2.73;;;19.80;54.30;;;;;;5054063;28;20292;-78
2023/06/01 00:33:58;;;;;;;4.17;2.70;;;19.80;54.50;;;;;;5035740;28;20198;-79
2023/06/01 00:36:27;;;;;;;5.03;2.80;;;19.80;54.50;;;;;;5053691;28;20662;-79
2023/06/01 00:38:55;;;;;;;4.40;2.50;;;19.70;54.60;;;;;;5053980;28;20629;-79
2023/06/01 00:41:21;;;;;;;4.73;2.70;;;19.70;54.80;;;;;;5053854;28;20255;-79
2023/06/01 00:43:48;;;;;;;4.17;2.73;;;19.60;55.00;;;;;;5053657;28;20588;-79
2023/06/01 00:46:15;;;;;;;5.07;3.10;;;19.60;55.10;;;;;;5036307;28;20210;-79
2023/06/01 00:48:42;;;;;;;3.67;2.80;;;19.50;55.20;;;;;;5053357;28;20658;-78
2023/06/01 00:51:11;;;;;;;3.50;2.73;;;19.50;55.40;;;;;;5035765;28;20289;-78
2023/06/01 00:53:39;;;;;;;3.30;2.40;;;19.50;55.50;;;;;;5053061;28;20268;-78
2023/06/01 00:56:06;;;;;;;4.27;2.67;;;19.40;55.60;;;;;;5053324;28;20225;-78
2023/06/01 00:58:33;;;;;;;3.53;2.70;;;19.40;55.70;;;;;;5053366;28;20212;-80
2023/06/01 01:01:02;;;;;;;2.90;2.50;;;19.40;55.80;;;;;;5052831;28;20229;-78
2023/06/01 01:03:31;;;;;;;5.47;2.90;;;19.30;55.90;;;;;;5053444;28;20589;-79
2023/06/01 01:06:11;;;;;;;3.53;2.77;;;19.40;55.80;;;;;;5053203;28;20198;-79
2023/06/01 01:08:47;;;;;;;3.97;2.80;;;19.40;55.90;;;;;;5052887;28;20292;-78
2023/06/01 01:11:20;;;;;;;4.03;2.83;;;19.30;56.10;;;;;;5053313;28;20190;-77
2023/06/01 01:13:52;;;;;;;5.23;3.20;;;19.30;56.20;;;;;;5053267;28;20236;-78
2023/06/01 01:16:24;;;;;;;3.90;2.63;;;19.20;56.10;;;;;;5035028;28;20193;-79
2023/06/01 01:18:58;;;;;;;4.37;2.77;;;19.20;56.30;;;;;;5052580;28;20230;-79
2023/06/01 01:21:30;;;;;;;3.03;2.73;;;19.10;56.40;;;;;;5052688;28;20197;-78
2023/06/01 01:24:15;;;;;;;3.00;2.57;;;19.20;56.50;;;;;;5053349;28;20572;-79
2023/06/01 01:27:14;;;;;;;3.20;2.90;;;19.10;56.70;;;;;;5035014;28;20201;-79
2023/06/01 01:29:44;;;;;;;5.33;2.70;;;19.10;56.80;;;;;;5052845;28;20216;-80
2023/06/01 01:32:12;;;;;;;4.73;3.40;;;19.10;56.60;;;;;;5031908;28;20674;-79
2023/06/01 01:34:41;;;;;;;3.07;2.70;;;19.10;56.60;;;;;;5053008;28;20200;-80
2023/06/01 01:37:08;;;;;;;4.20;2.80;;;19.00;56.40;;;;;;5052646;28;20768;-78
2023/06/01 01:39:35;;;;;;;8.20;3.03;;;18.90;56.20;;;;;;5035302;28;20234;-80
2023/06/01 01:42:02;;;;;;;3.23;2.93;;;18.90;56.10;;;;;;5052509;28;20261;-77
2023/06/01 01:44:29;;;;;;;4.90;2.80;;;18.90;56.20;;;;;;5052949;28;20214;-78
2023/06/01 01:47:06;;;;;;;4.43;3.07;;;18.80;55.90;;;;;;5042196;28;20201;-79
2023/06/01 01:49:38;;;;;;;3.73;2.93;;;18.80;56.10;;;;;;5034848;28;20194;-78
2023/06/01 01:52:09;;;;;;;4.00;2.90;;;18.80;56.30;;;;;;5052921;28;20297;-79
2023/06/01 01:54:41;;;;;;;3.27;2.97;;;18.70;56.30;;;;;;5052932;28;20480;-78
2023/06/01 01:57:09;;;;;;;3.73;2.90;;;18.70;56.10;;;;;;5052578;28;20959;-79
2023/06/01 01:59:37;;;;;;;3.70;3.13;;;18.70;56.10;;;;;;5034996;28;21049;-78
2023/06/01 02:02:05;;;;;;;3.83;2.60;;;18.70;56.20;;;;;;5034876;28;20454;-78
2023/06/01 02:04:32;;;;;;;4.43;2.83;;;18.70;56.30;;;;;;5055926;28;20571;-80
2023/06/01 02:06:59;;;;;;;4.10;2.80;;;18.60;56.30;;;;;;5056703;28;20447;-79
2023/06/01 02:09:27;;;;;;;4.60;3.00;;;18.60;56.00;;;;;;5056693;28;20217;-79
2023/06/01 02:11:53;;;;;;;4.93;2.50;;;18.60;56.30;;;;;;5056369;28;20597;-79
2023/06/01 02:14:20;;;;;;;4.10;2.90;;;18.50;56.20;;;;;;5056167;28;20190;-80
2023/06/01 02:16:47;;;;;;;4.70;2.97;;;18.50;56.30;;;;;;5056512;28;20202;-79
2023/06/01 02:19:16;;;;;;;3.80;3.10;;;18.50;56.30;;;;;;5056316;28;20487;-80
2023/06/01 02:21:43;;;;;;;4.20;3.07;;;18.40;56.40;;;;;;5056377;28;20304;-80
2023/06/01 02:24:10;;;;;;;3.23;2.80;;;18.40;56.30;;;;;;5056002;28;20234;-79
2023/06/01 02:26:37;;;;;;;3.53;2.43;;;18.40;56.50;;;;;;5055944;28;20212;-79
2023/06/01 02:29:05;;;;;;;4.73;2.77;;;18.40;56.30;;;;;;5055785;28;20263;-78
2023/06/01 02:31:32;;;;;;;5.33;3.07;;;18.40;56.30;;;;;;5056276;28;20690;-78
2023/06/01 02:33:59;;;;;;;4.27;2.77;;;18.30;56.50;;;;;;5055934;28;20201;-79
2023/06/01 02:36:28;;;;;;;3.73;2.87;;;18.30;56.80;;;;;;5033927;28;20448;-79
2023/06/01 02:38:55;;;;;;;5.07;2.83;;;18.30;57.00;;;;;;5056268;28;20202;-78
2023/06/01 02:41:23;;;;;;;4.77;3.10;;;18.30;57.20;;;;;;5038380;28;20229;-79
2023/06/01 02:43:51;;;;;;;3.73;2.90;;;18.30;57.20;;;;;;5038385;28;20217;-78
2023/06/01 02:46:18;;;;;;;4.40;3.00;;;18.30;57.40;;;;;;5055501;28;20472;-78
2023/06/01 02:48:45;;;;;;;4.33;3.00;;;18.20;57.40;;;;;;5055773;28;20452;-80
2023/06/01 02:51:12;;;;;;;3.60;2.87;;;18.20;57.50;;;;;;5056321;28;20623;-79
2023/06/01 02:53:42;;;;;;;5.77;2.97;;;18.10;57.80;;;;;;5038180;28;20480;-80
2023/06/01 02:56:09;;;;;;;3.83;3.00;;;18.10;57.80;;;;;;5055561;28;20208;-79
2023/06/01 02:58:36;;;;;;;3.30;2.80;;;18.00;57.80;;;;;;5054980;28;20952;-79
2023/06/01 03:01:03;;;;;;;4.70;3.00;;;18.00;57.80;;;;;;5055616;28;20547;-79
2023/06/01 03:03:30;;;;;;;5.87;2.90;;;18.00;57.70;;;;;;5055524;28;20531;-78
2023/06/01 03:05:58;;;;;;;4.47;2.70;;;17.90;57.70;;;;;;5055758;28;20507;-79
2023/06/01 03:08:25;;;;;;;4.13;3.13;;;17.80;57.80;;;;;;5055169;28;20452;-80
2023/06/01 03:10:54;;;;;;;3.77;2.80;;;17.80;58.00;;;;;;5055313;28;20487;-81
2023/06/01 03:13:20;;;;;;;3.27;2.60;;;17.70;58.20;;;;;;5055522;28;20472;-80
2023/06/01 03:15:48;;;;;;;4.27;2.90;;;17.70;58.40;;;;;;5054084;28;20454;-79
2023/06/01 03:18:15;;;;;;;3.00;2.70;;;17.70;58.50;;;;;;5035273;28;20457;-80
2023/06/01 03:20:42;;;;;;;3.20;2.90;;;17.60;58.60;;;;;;5055151;28;20551;-79
2023/06/01 03:23:09;;;;;;;3.80;2.77;;;17.60;58.70;;;;;;5055002;28;20479;-80
2023/06/01 03:25:36;;;;;;;3.67;3.07;;;17.60;58.70;;;;;;5054148;28;20708;-79
2023/06/01 03:28:05;;;;;;;6.17;2.67;;;17.60;58.80;;;;;;5035694;28;20540;-79
2023/06/01 03:30:32;;;;;;;5.17;2.87;;;17.50;58.90;;;;;;5053774;28;20556;-79
2023/06/01 03:32:59;;;;;;;5.50;3.10;;;17.60;59.00;;;;;;5054659;28;20459;-80
2023/06/01 03:35:26;;;;;;;3.80;3.17;;;17.50;59.00;;;;;;5037136;28;20809;-80
2023/06/01 03:37:53;;;;;;;5.57;2.60;;;17.50;59.10;;;;;;5054894;28;20539;-80
2023/06/01 03:40:20;;;;;;;3.00;2.70;;;17.60;59.10;;;;;;5054842;28;20536;-79
2023/06/01 03:42:48;;;;;;;4.20;3.23;;;17.50;59.20;;;;;;5053898;28;20523;-80
2023/06/01 03:45:17;;;;;;;3.23;2.90;;;17.50;59.40;;;;;;5036526;28;20489;-79
2023/06/01 03:47:44;;;;;;;3.73;2.90;;;17.50;59.40;;;;;;5043109;28;20481;-79
2023/06/01 03:50:12;;;;;;;3.47;2.70;;;17.50;59.60;;;;;;5057096;28;20543;-75
2023/06/01 03:52:39;;;;;;;4.93;3.00;;;17.50;59.60;;;;;;5072967;28;20508;-79
2023/06/01 03:55:10;;;;;;;4.47;2.50;;;17.50;59.60;;;;;;5075048;28;20443;-75
2023/06/01 03:57:37;;;;;;;4.97;3.27;;;17.40;59.50;;;;;;5074682;28;20524;-76
2023/06/01 04:00:17;;;;;;;3.07;2.73;;;17.50;59.60;;;;;;5042206;28;20512;-76
2023/06/01 04:02:48;;;;;;;3.93;2.60;;;17.50;59.80;;;;;;5074479;28;20440;-77
2023/06/01 04:05:16;;;;;;;3.50;2.60;;;17.40;59.90;;;;;;5057354;28;20480;-79
2023/06/01 04:07:45;;;;;;;4.97;2.77;;;17.40;60.00;;;;;;5037798;28;20487;-81
2023/06/01 04:10:13;;;;;;;4.93;2.97;;;17.40;60.10;;;;;;5036923;28;20483;-80
2023/06/01 04:12:42;;;;;;;4.03;2.90;;;17.40;60.30;;;;;;5054446;28;20911;-79
2023/06/01 04:15:10;;;;;;;3.00;2.40;;;17.40;60.20;;;;;;5036875;28;20449;-79
2023/06/01 04:17:38;;;;;;;4.60;2.90;;;17.40;60.30;;;;;;5053980;28;20456;-80
2023/06/01 04:20:09;;;;;;;3.53;2.80;;;17.50;60.50;;;;;;5054070;28;20856;-79
2023/06/01 04:22:36;;;;;;;4.27;2.60;;;17.40;60.50;;;;;;5036043;28;20468;-78
2023/06/01 04:25:04;;;;;;;4.03;3.20;;;17.40;60.70;;;;;;5053270;28;20488;-80
2023/06/01 04:27:31;;;;;;;6.97;3.20;;;17.50;60.70;;;;;;5053546;28;20456;-76
2023/06/01 04:29:58;;;;;;;6.40;3.23;;;17.50;60.70;;;;;;5053360;28;20464;-80
2023/06/01 04:32:27;;;;;;;5.83;2.80;;;17.50;60.90;;;;;;5053999;28;20452;-81
2023/06/01 04:34:56;;;;;;;3.40;2.97;;;17.50;60.80;;;;;;5053378;28;20551;-78
2023/06/01 04:37:25;;;;;;;3.33;3.00;;;17.60;61.10;;;;;;5054241;28;21078;-81
2023/06/01 04:39:52;;;;;;;3.97;2.60;;;17.50;61.10;;;;;;5053289;28;20441;-79
2023/06/01 04:42:19;;;;;;;4.20;2.97;;;17.60;61.20;;;;;;5053805;28;20456;-80
2023/06/01 04:44:49;;;;;;;5.37;3.03;;;17.60;61.30;;;;;;5036268;28;20480;-79
2023/06/01 04:47:16;;;;;;;6.40;3.07;;;17.60;61.30;;;;;;5053323;28;20504;-79
2023/06/01 04:49:44;;;;;;;3.73;3.10;;;17.60;61.30;;;;;;5053445;28;20453;-79
2023/06/01 04:52:11;;;;;;;6.03;3.10;;;17.60;61.40;;;;;;5053520;28;20932;-78
2023/06/01 04:54:45;;;;;;;4.80;3.00;;;17.60;61.60;;;;;;5053186;28;20463;-78
2023/06/01 04:57:13;;;;;;;3.97;3.13;;;17.70;62.50;;;;;;5053981;28;20839;-80
2023/06/01 04:59:41;;;;;;;4.30;3.27;;;17.80;62.50;;;;;;5045442;28;20489;-79
2023/06/01 05:02:08;;;;;;;4.63;3.07;;;17.90;62.70;;;;;;5033918;28;20456;-78
2023/06/01 05:04:35;;;;;;;4.93;3.07;;;17.90;62.20;;;;;;5052725;28;20523;-79
2023/06/01 05:07:03;;;;;;;5.47;3.20;;;18.00;62.00;;;;;;5053976;28;21133;-78
2023/06/01 05:09:29;;;;;;;4.37;2.80;;;18.10;62.20;;;;;;5053791;28;20460;-79
2023/06/01 05:11:58;;;;;;;4.57;3.00;;;18.30;61.90;;;;;;5020262;28;20938;-78
2023/06/01 05:14:25;;;;;;;4.03;2.90;;;18.30;62.50;;;;;;5033697;28;20528;-79
2023/06/01 05:16:52;;;;;;;4.40;3.57;;;18.40;61.60;;;;;;5052253;28;20308;-79
2023/06/01 05:19:19;;;;;;;3.87;2.70;;;18.50;62.00;;;;;;5053469;28;20464;-77
2023/06/01 05:21:47;;;;;;;3.40;2.70;;;18.60;61.80;;;;;;5052995;28;20452;-79
2023/06/01 05:24:13;;;;;;;3.80;2.73;;;18.60;61.40;;;;;;5052055;28;20252;-80
2023/06/01 05:26:41;;;;;;;4.37;3.10;;;18.70;61.50;;;;;;5051659;28;20218;-79
2023/06/01 05:29:09;;;;;;;3.80;2.70;;;18.80;62.20;;;;;;5051673;28;20238;-79
2023/06/01 05:31:36;;;;;;;3.40;3.00;;;18.90;62.50;;;;;;5052259;28;20661;-77
2023/06/01 05:34:03;;;;;;;3.33;3.03;;;19.00;62.90;;;;;;5052754;28;20550;-80
2023/06/01 05:36:31;;;;;;;3.27;2.97;;;19.00;62.70;;;;;;5053348;28;20547;-76
2023/06/01 05:38:58;;;;;;;4.00;3.00;;;19.10;63.20;;;;;;5055453;28;20210;-78
2023/06/01 05:41:26;;;;;;;4.83;3.70;;;19.20;63.60;;;;;;5045010;28;20704;-78
2023/06/01 05:43:53;;;;;;;3.93;2.87;;;19.30;63.50;;;;;;5020204;28;20199;-79
2023/06/01 05:46:21;;;;;;;4.20;2.90;;;19.40;63.40;;;;;;5056271;28;20279;-80
2023/06/01 05:48:48;;;;;;;5.53;3.37;;;19.50;64.20;;;;;;5057121;28;20454;-79
2023/06/01 05:51:15;;;;;;;5.77;3.20;;;19.50;63.40;;;;;;5056022;28;20256;-78
2023/06/01 05:53:43;;;;;;;4.30;3.13;;;19.60;63.30;;;;;;5054169;28;20228;-79
2023/06/01 05:56:10;;;;;;;4.27;2.87;;;19.70;63.10;;;;;;5055270;28;20252;-79
2023/06/01 05:58:37;;;;;;;3.90;3.10;;;19.80;62.90;;;;;;5033297;28;20221;-80
2023/06/01 06:01:04;;;;;;;3.30;3.00;;;19.80;62.80;;;;;;5055033;28;20208;-80
2023/06/01 06:03:33;;;;;;;6.33;4.17;;;19.90;62.80;;;;;;5052619;28;20198;-80
2023/06/01 06:06:00;;;;;;;5.37;3.47;;;20.00;62.20;;;;;;5056739;28;20222;-80
2023/06/01 06:08:27;;;;;;;6.13;3.30;;;20.10;62.20;;;;;;5039093;28;20204;-80
2023/06/01 06:10:56;;;;;;;3.77;2.73;;;20.20;62.30;;;;;;5036714;28;20337;-79
2023/06/01 06:13:23;;;;;;;5.33;3.20;;;20.30;62.10;;;;;;5036161;28;20206;-80
2023/06/01 06:15:50;;;;;;;7.10;3.30;;;20.40;61.70;;;;;;5050381;28;20281;-80
2023/06/01 06:18:19;;;;;;;6.80;3.37;;;20.50;61.30;;;;;;5036412;28;20293;-78
2023/06/01 06:20:47;;;;;;;4.57;2.93;;;20.60;61.10;;;;;;5036331;28;20207;-82
2023/06/01 06:23:17;;;;;;;5.47;2.90;;;20.60;61.00;;;;;;5036557;28;20320;-80
2023/06/01 06:25:48;;;;;;;4.37;2.93;;;20.70;60.90;;;;;;5033009;28;20228;-80
2023/06/01 06:28:15;;;;;;;6.90;2.90;;;20.80;60.80;;;;;;5038287;28;20194;-79
2023/06/01 06:30:41;;;;;;;7.60;3.80;;;20.90;60.70;;;;;;5047349;28;20249;-80
2023/06/01 06:33:08;;;;;;;4.43;2.93;;;21.00;60.40;;;;;;5056413;28;20292;-80
2023/06/01 06:35:36;;;;;;;6.17;3.43;;;21.10;60.20;;;;;;5004821;28;20230;-80
2023/06/01 06:38:04;;;;;;;6.70;2.87;;;21.10;60.00;;;;;;5048348;28;20229;-80
2023/06/01 06:40:31;;;;;;;3.90;2.47;;;21.20;59.50;;;;;;5055583;28;20231;-79
2023/06/01 06:42:58;;;;;;;4.10;2.87;;;21.30;58.80;;;;;;5054683;28;20232;-80
2023/06/01 06:45:27;;;;;;;4.60;2.37;;;21.40;58.60;;;;;;5055347;28;20236;-80
2023/06/01 06:47:53;;;;;;;4.93;2.57;;;21.50;58.10;;;;;;5055464;28;20202;-81
2023/06/01 06:50:20;;;;;;;3.33;2.80;;;21.70;57.40;;;;;;5054743;28;20206;-79
2023/06/01 06:52:47;;;;;;;4.43;2.93;;;21.70;57.30;;;;;;5055152;28;20233;-80
2023/06/01 06:55:15;;;;;;;3.77;2.90;;;21.80;56.80;;;;;;5043022;28;20222;-80
2023/06/01 06:57:42;;;;;;;4.37;2.50;;;21.90;56.80;;;;;;5034627;28;20213;-80
2023/06/01 07:00:14;;;;;;;3.33;2.70;;;22.00;56.90;;;;;;5034986;28;20601;-80
2023/06/01 07:02:41;;;;;;;3.87;2.60;;;22.10;56.40;;;;;;5034968;28;20627;-80
2023/06/01 07:05:10;;;;;;;3.87;2.90;;;22.10;56.10;;;;;;5034885;28;20213;-78
2023/06/01 07:07:37;;;;;;;3.83;2.40;;;22.20;55.70;;;;;;5034647;28;20211;-78
2023/06/01 07:10:05;;;;;;;4.07;2.70;;;22.30;56.40;;;;;;5034733;28;20759;-80
2023/06/01 07:12:34;;;;;;;3.00;2.47;;;22.40;55.50;;;;;;5016655;28;20284;-77
2023/06/01 07:15:02;;;;;;;5.80;3.10;;;22.50;55.90;;;;;;5016648;28;20207;-78
2023/06/01 07:17:29;;;;;;;3.53;2.97;;;22.60;55.50;;;;;;5017472;28;20210;-78
2023/06/01 07:19:56;;;;;;;3.83;2.60;;;22.70;55.50;;;;;;5034634;28;20262;-78
2023/06/01 07:22:23;;;;;;;4.00;2.63;;;22.80;55.50;;;;;;5035809;28;20202;-79
2023/06/01 07:24:50;;;;;;;4.47;2.37;;;22.90;55.10;;;;;;5034120;28;20233;-80
2023/06/01 07:27:20;;;;;;;7.33;3.00;;;23.00;55.10;;;;;;5034290;28;20226;-80
2023/06/01 07:29:49;;;;;;;3.70;2.70;;;23.10;55.10;;;;;;5034080;28;20336;-80
2023/06/01 07:32:16;;;;;;;4.57;2.23;;;23.20;54.50;;;;;;5034508;28;20301;-79
2023/06/01 07:34:43;;;;;;;2.90;2.33;;;23.20;54.20;;;;;;5034406;28;20202;-78
2023/06/01 07:37:09;;;;;;;5.97;2.53;;;23.40;54.20;;;;;;5017160;28;20209;-79
2023/06/01 07:39:36;;;;;;;5.03;2.63;;;23.50;54.00;;;;;;5033874;28;20317;-78
2023/06/01 07:42:03;;;;;;;4.83;2.10;;;23.50;53.80;;;;;;5034147;28;20257;-77
2023/06/01 07:44:30;;;;;;;4.10;2.27;;;23.60;53.50;;;;;;5054204;28;20543;-79
2023/06/01 07:46:59;;;;;;;3.00;2.30;;;23.70;53.00;;;;;;5054290;28;20332;-78
2023/06/01 07:49:26;;;;;;;6.60;2.80;;;23.80;53.00;;;;;;5053671;28;20779;-80
2023/06/01 07:51:53;;;;;;;4.93;2.60;;;23.90;53.20;;;;;;5054123;28;20213;-81
2023/06/01 07:54:20;;;;;;;3.97;2.53;;;24.10;53.10;;;;;;5053062;28;20328;-80
2023/06/01 07:56:48;;;;;;;5.67;2.70;;;24.10;53.30;;;;;;5053907;28;20726;-80
2023/06/01 07:59:15;;;;;;;3.77;2.30;;;24.20;53.20;;;;;;5054073;28;20209;-79
2023/06/01 08:01:42;;;;;;;2.83;2.53;;;24.30;52.70;;;;;;5052908;28;20204;-79
2023/06/01 08:04:10;;;;;;;5.77;2.20;;;24.40;52.60;;;;;;5035890;28;20747;-78
2023/06/01 08:06:38;;;;;;;3.33;2.80;;;24.50;52.60;;;;;;5048756;28;20679;-80
2023/06/01 08:09:05;;;;;;;5.33;2.43;;;24.60;52.40;;;;;;5033650;28;20202;-79
2023/06/01 08:11:32;;;;;;;4.07;2.30;;;24.70;52.40;;;;;;5046771;28;20201;-77
2023/06/01 08:14:02;;;;;;;4.07;2.40;;;24.80;52.20;;;;;;5001823;28;20690;-80
2023/06/01 08:16:30;;;;;;;3.43;2.43;;;24.90;51.90;;;;;;5053306;28;20189;-79
2023/06/01 08:18:56;;;;;;;2.40;2.00;;;24.90;51.60;;;;;;5048437;28;20230;-80
2023/06/01 08:21:26;;;;;;;4.30;2.60;;;25.00;51.30;;;;;;5024393;28;20681;-80
2023/06/01 08:23:55;;;;;;;3.60;2.33;;;25.10;50.70;;;;;;5032388;28;20731;-79
2023/06/01 08:26:22;;;;;;;3.93;2.23;;;25.10;51.10;;;;;;5033066;28;20226;-80
2023/06/01 08:28:51;;;;;;;3.73;2.30;;;25.20;50.80;;;;;;5033463;28;20647;-79
2023/06/01 08:31:19;;;;;;;3.70;2.43;;;25.30;50.90;;;;;;5015181;28;20230;-79
2023/06/01 08:33:46;;;;;;;3.33;2.60;;;25.40;50.20;;;;;;5032821;28;20214;-78
2023/06/01 08:36:13;;;;;;;5.00;2.40;;;25.50;49.40;;;;;;5015080;28;20226;-79
2023/06/01 08:38:42;;;;;;;3.27;2.40;;;25.60;50.00;;;;;;5032805;28;20212;-81
2023/06/01 08:41:21;;;;;;;3.03;2.60;;;25.70;49.30;;;;;;5032541;28;20215;-77
2023/06/01 08:43:56;;;;;;;4.40;2.50;;;25.80;49.30;;;;;;4988886;28;20201;-78
2023/06/01 08:46:23;;;;;;;3.93;3.13;;;25.90;50.30;;;;;;5033463;28;20212;-80
2023/06/01 08:48:55;;;;;;;6.10;2.97;;;26.00;49.90;;;;;;5032618;28;20262;-79
2023/06/01 08:51:23;;;;;;;4.70;2.70;;;26.10;50.10;;;;;;5014965;28;20211;-78
2023/06/01 08:53:52;;;;;;;4.33;2.50;;;26.10;48.60;;;;;;5041797;28;20320;-78
2023/06/01 08:56:21;;;;;;;3.20;2.60;;;26.20;48.40;;;;;;5037942;28;20202;-77
2023/06/01 08:58:49;;;;;;;3.40;2.67;;;26.30;49.20;;;;;;5032467;28;20289;-79
2023/06/01 09:01:20;;;;;;;4.43;2.90;;;26.40;48.50;;;;;;5032319;28;20647;-78
2023/06/01 09:03:48;;;;;;;5.57;3.03;;;26.50;47.90;;;;;;5048492;28;20231;-79
2023/06/01 09:06:15;;;;;;;6.77;2.97;;;26.50;47.80;;;;;;4997093;28;20329;-79
2023/06/01 09:08:42;;;;;;;5.07;3.00;;;26.60;48.30;;;;;;5031732;28;20201;-78
2023/06/01 09:11:10;;;;;;;2.70;2.40;;;26.70;48.50;;;;;;5052107;28;20573;-75
2023/06/01 09:13:39;;;;;;;2.90;2.60;;;26.80;48.70;;;;;;5050783;28;20573;-78
2023/06/01 09:16:06;;;;;;;5.47;2.73;;;26.90;47.50;;;;;;5052046;28;20207;-78
2023/06/01 09:18:34;;;;;;;5.13;2.60;;;27.00;47.80;;;;;;5051774;28;20233;-77
2023/06/01 09:21:16;;;;;;;5.20;2.87;;;27.10;47.80;;;;;;5027318;28;20203;-79
2023/06/01 09:23:43;;;;;;;6.07;3.17;;;27.20;48.20;;;;;;5030672;28;20295;-80
2023/06/01 09:26:13;;;;;;;5.47;2.80;;;27.30;48.50;;;;;;5051752;28;20239;-79
2023/06/01 09:28:57;;;;;;;4.50;2.83;;;27.40;46.90;;;;;;5052125;28;20222;-77
2023/06/01 09:31:37;;;;;;;4.30;3.17;;;27.50;46.00;;;;;;5051512;28;20274;-81
2023/06/01 09:34:05;;;;;;;4.30;2.97;;;27.50;46.00;;;;;;4996546;28;20232;-80
2023/06/01 09:36:32;;;;;;;5.07;3.27;;;27.60;45.50;;;;;;5037805;28;20203;-79
2023/06/01 09:39:03;;;;;;;3.87;3.17;;;27.60;45.20;;;;;;5031889;28;20248;-79
2023/06/01 09:44:29;;;;;;;4.77;3.33;;;27.70;45.50;;;;;;5109460;27;20653;-75
2023/06/01 09:46:58;;;;;;;6.27;3.17;;;27.80;46.20;;;;;;5109543;28;20202;-79
2023/06/01 09:49:26;;;;;;;4.23;2.97;;;28.00;46.60;;;;;;5109155;28;20236;-79
2023/06/01 09:52:08;;;;;;;5.50;3.20;;;28.10;45.30;;;;;;5090118;28;20211;-78
2023/06/01 09:54:38;;;;;;;4.13;2.90;;;28.10;46.00;;;;;;5109558;28;20344;-77
2023/06/01 09:57:06;;;;;;;5.07;3.00;;;28.30;45.90;;;;;;5109561;28;20276;-79
2023/06/01 09:59:41;;;;;;;6.23;3.20;;;28.20;43.80;;;;;;5109572;28;20228;-79
2023/06/01 10:02:11;;;;;;;7.93;3.60;;;28.30;45.20;;;;;;5109033;28;20255;-77
2023/06/01 10:04:41;;;;;;;5.30;3.50;;;28.40;45.40;;;;;;5108479;28;20298;-80
2023/06/01 10:07:10;;;;;;;4.67;3.17;;;28.50;45.10;;;;;;5108854;28;20211;-77
2023/06/01 10:09:39;;;;;;;3.70;2.90;;;28.60;45.30;;;;;;5109158;28;20572;-80
2023/06/01 10:12:08;;;;;;;5.10;3.30;;;28.80;45.00;;;;;;5107761;28;20196;-79
2023/06/01 10:14:37;;;;;;;5.77;3.10;;;28.80;43.50;;;;;;5109052;28;20553;-79
2023/06/01 10:17:06;;;;;;;6.50;3.50;;;28.90;44.70;;;;;;5109068;28;20264;-79
2023/06/01 10:19:36;;;;;;;4.23;3.23;;;29.00;44.00;;;;;;5108413;28;20214;-81
2023/06/01 10:22:04;;;;;;;5.43;3.60;;;29.00;44.60;;;;;;5108491;28;20703;-76
2023/06/01 10:24:32;;;;;;;4.53;3.27;;;29.10;43.60;;;;;;5107532;28;20693;-78
2023/06/01 10:27:05;;;;;;;3.23;2.93;;;29.20;44.00;;;;;;5108375;28;20274;-77
2023/06/01 10:29:33;;;;;;;5.73;3.37;;;29.30;44.20;;;;;;5108713;28;20204;-79
2023/06/01 10:32:01;;;;;;;6.23;3.73;;;29.40;44.40;;;;;;5108731;28;20250;-77
2023/06/01 10:34:47;;;;;;;4.53;3.50;;;29.50;43.50;;;;;;5106656;28;20223;-79
2023/06/01 10:37:18;;;;;;;3.97;3.57;;;29.60;44.40;;;;;;5107630;28;20227;-76
2023/06/01 10:39:45;;;;;;;5.13;3.33;;;29.70;42.50;;;;;;5108326;28;20228;-76
2023/06/01 10:42:38;;;;;;;6.30;3.47;;;29.80;41.90;;;;;;5108058;28;20199;-78
2023/06/01 10:45:24;;;;;;;3.77;3.13;;;29.80;40.50;;;;;;5108036;28;20208;-79
2023/06/01 10:47:51;;;;;;;5.07;3.03;;;29.90;41.00;;;;;;5096102;28;20199;-76
2023/06/01 10:50:19;;;;;;;4.43;3.50;;;29.90;40.50;;;;;;5108167;28;20576;-79
2023/06/01 10:52:47;;;;;;;4.67;3.20;;;30.00;40.50;;;;;;5108026;28;20201;-78
2023/06/01 10:55:24;;;;;;;4.23;3.57;;;30.10;40.50;;;;;;5097362;28;20239;-78
2023/06/01 10:57:52;;;;;;;4.03;3.20;;;30.10;38.90;;;;;;5094420;28;20227;-79
2023/06/01 11:00:22;;;;;;;4.20;3.17;;;30.20;39.80;;;;;;5094443;28;20595;-76
2023/06/01 11:02:55;;;;;;;3.23;2.80;;;30.30;39.30;;;;;;5092569;28;20228;-75
2023/06/01 11:05:36;;;;;;;5.70;3.20;;;30.30;40.00;;;;;;5093984;28;20239;-75
2023/06/01 11:08:04;;;;;;;4.53;3.27;;;30.40;38.90;;;;;;5094256;28;20208;-77
2023/06/01 11:10:58;;;;;;;4.80;2.90;;;30.50;39.40;;;;;;5094006;28;20251;-76
2023/06/01 11:13:27;;;;;;;4.63;2.87;;;30.60;39.00;;;;;;5082111;28;20197;-79
2023/06/01 11:16:28;;;;;;;3.70;3.27;;;30.70;39.40;;;;;;5073562;28;20243;-78
2023/06/01 11:18:58;;;;;;;5.07;2.80;;;30.70;38.90;;;;;;5073469;28;20204;-76
2023/06/01 11:21:28;;;;;;;3.60;2.77;;;30.80;38.60;;;;;;5073602;28;20695;-76
2023/06/01 11:23:57;;;;;;;4.17;2.80;;;30.80;38.00;;;;;;5073890;28;20673;-75
2023/06/01 11:26:27;;;;;;;5.07;3.27;;;30.90;39.10;;;;;;5037963;28;20192;-79
2023/06/01 11:29:03;;;;;;;5.17;2.80;;;30.90;37.40;;;;;;5073498;28;20229;-78
2023/06/01 11:31:36;;;;;;;2.80;2.50;;;30.90;38.10;;;;;;5072984;28;20200;-77
2023/06/01 11:34:03;;;;;;;3.97;2.90;;;31.00;38.30;;;;;;5073451;28;20228;-79
2023/06/01 11:36:36;;;;;;;4.17;2.43;;;31.10;38.00;;;;;;5073946;28;20193;-76
2023/06/01 11:39:06;;;;;;;3.07;2.30;;;31.10;37.30;;;;;;5073448;28;20205;-78
2023/06/01 11:41:33;;;;;;;4.27;2.60;;;31.20;36.70;;;;;;5072847;28;20229;-78
2023/06/01 11:44:00;;;;;;;4.43;2.73;;;31.20;37.00;;;;;;5073026;28;20692;-78
2023/06/01 11:46:28;;;;;;;5.17;2.23;;;31.30;36.60;;;;;;5071723;28;20224;-80
2023/06/01 11:49:04;;;;;;;4.20;2.40;;;31.30;36.30;;;;;;5074181;28;20243;-78
2023/06/01 11:51:33;;;;;;;3.50;2.60;;;31.40;35.90;;;;;;5093086;28;20290;-77
2023/06/01 11:54:03;;;;;;;3.60;2.40;;;31.50;36.00;;;;;;5057386;28;20677;-78
2023/06/01 11:56:30;;;;;;;3.93;2.47;;;31.60;35.10;;;;;;5092943;28;20296;-77
2023/06/01 11:59:01;;;;;;;4.50;2.20;;;31.60;34.50;;;;;;5092859;28;20316;-77
2023/06/01 12:01:29;;;;;;;3.90;2.70;;;31.60;35.10;;;;;;5083903;28;20197;-78
2023/06/01 12:03:57;;;;;;;3.47;2.20;;;31.70;34.80;;;;;;5036556;28;20232;-78
2023/06/01 12:06:26;;;;;;;4.00;2.30;;;31.70;35.10;;;;;;5070595;28;20240;-79
2023/06/01 12:08:56;;;;;;;3.10;2.67;;;31.90;34.60;;;;;;5072572;28;20211;-79
2023/06/01 12:11:27;;;;;;;6.00;2.83;;;31.90;34.20;;;;;;5072803;28;20208;-79
2023/06/01 12:13:54;;;;;;;3.03;2.50;;;31.60;32.80;;;;;;5083009;28;20653;-78
2023/06/01 12:16:22;;;;;;;3.43;2.67;;;31.60;35.40;;;;;;5092332;28;20224;-77
2023/06/01 12:18:49;;;;;;;3.90;2.50;;;31.70;35.90;;;;;;5092480;28;20210;-79
2023/06/01 12:21:17;;;;;;;3.47;2.10;;;31.90;35.30;;;;;;5092645;28;20656;-79
2023/06/01 12:23:49;;;;;;;6.40;2.67;;;32.00;36.20;;;;;;5092142;28;20232;-78
2023/06/01 12:26:18;;;;;;;4.20;2.47;;;32.10;35.30;;;;;;5078648;28;20225;-76
2023/06/01 12:28:50;;;;;;;3.90;2.30;;;32.20;35.10;;;;;;5071587;28;20228;-75
2023/06/01 12:31:17;;;;;;;4.13;2.60;;;32.30;34.70;;;;;;5072034;28;20270;-77
2023/06/01 12:33:45;;;;;;;3.53;2.33;;;32.30;34.70;;;;;;5071675;28;20213;-78
2023/06/01 12:36:31;;;;;;;3.07;2.40;;;32.40;34.50;;;;;;5072274;28;20222;-74
2023/06/01 12:38:58;;;;;;;3.43;2.43;;;32.50;34.40;;;;;;5076207;28;20295;-77
2023/06/01 12:41:27;;;;;;;3.43;2.47;;;32.50;33.90;;;;;;5076155;28;20240;-76
2023/06/01 12:43:54;;;;;;;3.87;2.50;;;32.70;33.30;;;;;;5074677;28;20232;-76
2023/06/01 12:46:22;;;;;;;3.00;2.33;;;32.70;33.30;;;;;;5076231;28;20231;-79
2023/06/01 12:48:50;;;;;;;3.20;2.87;;;32.70;33.70;;;;;;5095495;28;20204;-79
2023/06/01 12:51:18;;;;;;;3.23;2.60;;;32.80;33.60;;;;;;5065505;28;20297;-78
2023/06/01 12:53:45;;;;;;;4.70;2.70;;;32.80;34.10;;;;;;5094549;28;20225;-77
2023/06/01 12:56:12;;;;;;;4.80;2.90;;;32.80;32.20;;;;;;5092719;28;20300;-78
2023/06/01 12:58:41;;;;;;;3.37;2.60;;;32.90;33.00;;;;;;5092329;28;20314;-77
2023/06/01 13:01:08;;;;;;;3.80;2.50;;;32.90;32.30;;;;;;5073172;28;20204;-77